sensor_id;sensor_type;location;lat;lon;timestamp;P1;durP1;ratioP1;P2;durP2;ratioP2
40314;SDS011;26021;45.640;11.302;2023-03-26T00:01:10;30.55;;;23.83;;
40314;SDS011;26021;45.640;11.302;2023-03-26T00:03:40;28.38;;;23.38;;
40314;SDS011;26021;45.640;11.302;2023-03-26T00:06:09;26.27;;;23.45;;
40314;SDS011;26021;45.640;11.302;2023-03-26T00:08:37;25.52;;;21.95;;
40314;SDS011;26021;45.640;11.302;2023-03-26T00:11:05;29.45;;;23.45;;
40314;SDS011;26021;45.640;11.302;2023-03-26T00:13:32;25.85;;;23.05;;
40314;SDS011;26021;45.640;11.302;2023-03-26T00:15:58;27.23;;;22.65;;
40314;SDS011;26021;45.640;11.302;2023-03-26T00:18:24;28.70;;;23.80;;
40314;SDS011;26021;45.640;11.302;2023-03-26T00:20:55;29.60;;;24.65;;
40314;SDS011;26021;45.640;11.302;2023-03-26T00:23:23;29.08;;;24.52;;
40314;SDS011;26021;45.640;11.302;2023-03-26T00:25:49;28.70;;;23.33;;
40314;SDS011;26021;45.640;11.302;2023-03-26T00:28:16;30.67;;;24.10;;
40314;SDS011;26021;45.640;11.302;2023-03-26T00:30:45;34.55;;;27.35;;
40314;SDS011;26021;45.640;11.302;2023-03-26T00:33:11;29.38;;;23.88;;
40314;SDS011;26021;45.640;11.302;2023-03-26T00:35:41;27.83;;;23.55;;
40314;SDS011;26021;45.640;11.302;2023-03-26T00:38:11;28.55;;;24.92;;
40314;SDS011;26021;45.640;11.302;2023-03-26T00:40:39;25.90;;;22.42;;
40314;SDS011;26021;45.640;11.302;2023-03-26T00:43:11;29.38;;;24.08;;
40314;SDS011;26021;45.640;11.302;2023-03-26T00:45:50;32.42;;;24.85;;
40314;SDS011;26021;45.640;11.302;2023-03-26T00:48:21;29.60;;;24.15;;
40314;SDS011;26021;45.640;11.302;2023-03-26T00:50:47;30.52;;;25.02;;
40314;SDS011;26021;45.640;11.302;2023-03-26T00:53:14;29.67;;;23.92;;
40314;SDS011;26021;45.640;11.302;2023-03-26T00:55:43;26.00;;;22.27;;
40314;SDS011;26021;45.640;11.302;2023-03-26T00:58:10;32.50;;;25.52;;
40314;SDS011;26021;45.640;11.302;2023-03-26T01:00:49;29.63;;;24.25;;
40314;SDS011;26021;45.640;11.302;2023-03-26T01:03:18;31.08;;;25.00;;
40314;SDS011;26021;45.640;11.302;2023-03-26T01:05:49;32.72;;;25.17;;
40314;SDS011;26021;45.640;11.302;2023-03-26T01:08:37;33.75;;;25.23;;
40314;SDS011;26021;45.640;11.302;2023-03-26T01:11:25;29.98;;;25.17;;
40314;SDS011;26021;45.640;11.302;2023-03-26T01:13:55;32.08;;;26.35;;
40314;SDS011;26021;45.640;11.302;2023-03-26T01:16:25;28.63;;;23.77;;
40314;SDS011;26021;45.640;11.302;2023-03-26T01:18:55;32.53;;;26.30;;
40314;SDS011;26021;45.640;11.302;2023-03-26T01:21:23;31.80;;;25.52;;
40314;SDS011;26021;45.640;11.302;2023-03-26T01:26:33;29.00;;;23.73;;
40314;SDS011;26021;45.640;11.302;2023-03-26T01:29:05;30.52;;;25.27;;
40314;SDS011;26021;45.640;11.302;2023-03-26T01:31:38;30.13;;;24.15;;
40314;SDS011;26021;45.640;11.302;2023-03-26T01:45:50;28.57;;;23.27;;
40314;SDS011;26021;45.640;11.302;2023-03-26T01:48:16;30.65;;;22.95;;
40314;SDS011;26021;45.640;11.302;2023-03-26T01:50:42;28.02;;;23.13;;
40314;SDS011;26021;45.640;11.302;2023-03-26T01:53:08;27.58;;;21.50;;
40314;SDS011;26021;45.640;11.302;2023-03-26T01:58:28;33.05;;;24.45;;
40314;SDS011;26021;45.640;11.302;2023-03-26T02:03:49;27.73;;;22.92;;
40314;SDS011;26021;45.640;11.302;2023-03-26T02:09:17;25.75;;;20.13;;
40314;SDS011;26021;45.640;11.302;2023-03-26T02:11:46;30.23;;;23.65;;
40314;SDS011;26021;45.640;11.302;2023-03-26T02:14:13;26.27;;;21.80;;
40314;SDS011;26021;45.640;11.302;2023-03-26T02:16:39;24.67;;;21.33;;
40314;SDS011;26021;45.640;11.302;2023-03-26T02:19:05;27.67;;;21.05;;
40314;SDS011;26021;45.640;11.302;2023-03-26T02:21:33;31.45;;;24.25;;
40314;SDS011;26021;45.640;11.302;2023-03-26T02:23:59;30.08;;;23.38;;
40314;SDS011;26021;45.640;11.302;2023-03-26T02:26:28;27.98;;;24.20;;
40314;SDS011;26021;45.640;11.302;2023-03-26T02:28:56;29.20;;;24.48;;
40314;SDS011;26021;45.640;11.302;2023-03-26T02:31:22;28.38;;;24.58;;
40314;SDS011;26021;45.640;11.302;2023-03-26T02:33:50;28.27;;;24.05;;
40314;SDS011;26021;45.640;11.302;2023-03-26T02:36:16;30.40;;;23.38;;
40314;SDS011;26021;45.640;11.302;2023-03-26T02:38:46;30.80;;;23.85;;
40314;SDS011;26021;45.640;11.302;2023-03-26T02:41:11;29.38;;;23.63;;
40314;SDS011;26021;45.640;11.302;2023-03-26T02:43:37;28.13;;;23.25;;
40314;SDS011;26021;45.640;11.302;2023-03-26T02:46:02;29.73;;;24.17;;
40314;SDS011;26021;45.640;11.302;2023-03-26T02:48:28;30.00;;;24.90;;
40314;SDS011;26021;45.640;11.302;2023-03-26T02:50:53;31.73;;;25.25;;
40314;SDS011;26021;45.640;11.302;2023-03-26T02:53:20;32.05;;;24.85;;
40314;SDS011;26021;45.640;11.302;2023-03-26T02:55:47;31.05;;;23.30;;
40314;SDS011;26021;45.640;11.302;2023-03-26T02:58:13;32.45;;;23.85;;
40314;SDS011;26021;45.640;11.302;2023-03-26T03:00:42;28.52;;;23.50;;
40314;SDS011;26021;45.640;11.302;2023-03-26T03:03:10;32.13;;;23.92;;
40314;SDS011;26021;45.640;11.302;2023-03-26T03:05:36;27.58;;;23.52;;
40314;SDS011;26021;45.640;11.302;2023-03-26T03:08:07;31.00;;;24.52;;
40314;SDS011;26021;45.640;11.302;2023-03-26T03:10:33;28.35;;;23.80;;
40314;SDS011;26021;45.640;11.302;2023-03-26T03:12:59;29.10;;;23.20;;
40314;SDS011;26021;45.640;11.302;2023-03-26T03:15:24;30.30;;;24.00;;
40314;SDS011;26021;45.640;11.302;2023-03-26T03:17:50;30.73;;;24.77;;
40314;SDS011;26021;45.640;11.302;2023-03-26T03:20:16;30.63;;;24.58;;
40314;SDS011;26021;45.640;11.302;2023-03-26T03:22:41;27.52;;;23.67;;
40314;SDS011;26021;45.640;11.302;2023-03-26T03:25:07;27.35;;;23.00;;
40314;SDS011;26021;45.640;11.302;2023-03-26T03:27:38;28.33;;;22.35;;
40314;SDS011;26021;45.640;11.302;2023-03-26T03:30:05;25.60;;;21.67;;
40314;SDS011;26021;45.640;11.302;2023-03-26T03:32:31;27.35;;;21.55;;
40314;SDS011;26021;45.640;11.302;2023-03-26T03:34:57;25.65;;;20.85;;
40314;SDS011;26021;45.640;11.302;2023-03-26T03:37:23;25.08;;;19.63;;
40314;SDS011;26021;45.640;11.302;2023-03-26T03:39:51;22.05;;;19.30;;
40314;SDS011;26021;45.640;11.302;2023-03-26T03:42:16;27.23;;;20.52;;
40314;SDS011;26021;45.640;11.302;2023-03-26T03:44:42;21.90;;;18.55;;
40314;SDS011;26021;45.640;11.302;2023-03-26T03:47:07;19.60;;;16.60;;
40314;SDS011;26021;45.640;11.302;2023-03-26T03:49:37;23.02;;;17.88;;
40314;SDS011;26021;45.640;11.302;2023-03-26T03:52:03;22.13;;;15.88;;
40314;SDS011;26021;45.640;11.302;2023-03-26T03:54:28;22.05;;;15.73;;
40314;SDS011;26021;45.640;11.302;2023-03-26T03:56:54;21.27;;;15.90;;
40314;SDS011;26021;45.640;11.302;2023-03-26T03:59:19;19.95;;;15.82;;
40314;SDS011;26021;45.640;11.302;2023-03-26T04:01:45;21.70;;;16.52;;
40314;SDS011;26021;45.640;11.302;2023-03-26T04:04:11;23.48;;;15.75;;
40314;SDS011;26021;45.640;11.302;2023-03-26T04:06:36;25.95;;;15.70;;
40314;SDS011;26021;45.640;11.302;2023-03-26T04:09:02;18.02;;;15.23;;
40314;SDS011;26021;45.640;11.302;2023-03-26T04:11:28;17.80;;;14.93;;
40314;SDS011;26021;45.640;11.302;2023-03-26T04:13:53;17.92;;;15.00;;
40314;SDS011;26021;45.640;11.302;2023-03-26T04:16:18;19.35;;;15.25;;
40314;SDS011;26021;45.640;11.302;2023-03-26T04:18:45;21.40;;;15.27;;
40314;SDS011;26021;45.640;11.302;2023-03-26T04:21:10;17.92;;;14.75;;
40314;SDS011;26021;45.640;11.302;2023-03-26T04:23:36;18.45;;;15.35;;
40314;SDS011;26021;45.640;11.302;2023-03-26T04:26:03;17.45;;;14.52;;
40314;SDS011;26021;45.640;11.302;2023-03-26T04:31:11;17.55;;;14.10;;
40314;SDS011;26021;45.640;11.302;2023-03-26T04:33:42;18.77;;;14.15;;
40314;SDS011;26021;45.640;11.302;2023-03-26T04:36:13;17.00;;;13.73;;
40314;SDS011;26021;45.640;11.302;2023-03-26T04:38:44;19.25;;;14.95;;
40314;SDS011;26021;45.640;11.302;2023-03-26T04:41:13;19.13;;;14.25;;
40314;SDS011;26021;45.640;11.302;2023-03-26T04:43:39;16.52;;;14.27;;
40314;SDS011;26021;45.640;11.302;2023-03-26T04:46:11;18.33;;;14.63;;
40314;SDS011;26021;45.640;11.302;2023-03-26T04:48:37;16.70;;;13.40;;
40314;SDS011;26021;45.640;11.302;2023-03-26T04:51:03;16.20;;;13.63;;
40314;SDS011;26021;45.640;11.302;2023-03-26T04:53:31;16.85;;;14.43;;
40314;SDS011;26021;45.640;11.302;2023-03-26T04:55:59;17.20;;;13.50;;
40314;SDS011;26021;45.640;11.302;2023-03-26T05:00:58;15.30;;;13.43;;
40314;SDS011;26021;45.640;11.302;2023-03-26T05:03:25;26.38;;;23.52;;
40314;SDS011;26021;45.640;11.302;2023-03-26T05:05:58;16.35;;;14.52;;
40314;SDS011;26021;45.640;11.302;2023-03-26T05:08:26;18.02;;;14.40;;
40314;SDS011;26021;45.640;11.302;2023-03-26T05:10:53;20.70;;;15.00;;
40314;SDS011;26021;45.640;11.302;2023-03-26T05:13:20;18.75;;;14.77;;
40314;SDS011;26021;45.640;11.302;2023-03-26T05:15:46;17.38;;;14.85;;
40314;SDS011;26021;45.640;11.302;2023-03-26T05:18:12;16.02;;;14.13;;
40314;SDS011;26021;45.640;11.302;2023-03-26T05:20:37;19.85;;;15.00;;
40314;SDS011;26021;45.640;11.302;2023-03-26T05:23:03;21.15;;;15.73;;
40314;SDS011;26021;45.640;11.302;2023-03-26T05:25:28;20.00;;;16.15;;
40314;SDS011;26021;45.640;11.302;2023-03-26T05:27:53;21.38;;;16.92;;
40314;SDS011;26021;45.640;11.302;2023-03-26T05:30:19;20.25;;;16.27;;
40314;SDS011;26021;45.640;11.302;2023-03-26T05:32:46;22.48;;;16.77;;
40314;SDS011;26021;45.640;11.302;2023-03-26T05:35:16;20.63;;;16.30;;
40314;SDS011;26021;45.640;11.302;2023-03-26T05:37:42;20.40;;;16.25;;
40314;SDS011;26021;45.640;11.302;2023-03-26T05:40:09;18.00;;;14.65;;
40314;SDS011;26021;45.640;11.302;2023-03-26T05:42:36;18.08;;;14.63;;
40314;SDS011;26021;45.640;11.302;2023-03-26T05:45:03;19.63;;;15.38;;
40314;SDS011;26021;45.640;11.302;2023-03-26T05:47:31;16.45;;;14.23;;
40314;SDS011;26021;45.640;11.302;2023-03-26T05:49:56;17.95;;;13.95;;
40314;SDS011;26021;45.640;11.302;2023-03-26T05:52:21;18.67;;;14.52;;
40314;SDS011;26021;45.640;11.302;2023-03-26T05:54:47;17.60;;;15.05;;
40314;SDS011;26021;45.640;11.302;2023-03-26T05:57:12;17.10;;;14.35;;
40314;SDS011;26021;45.640;11.302;2023-03-26T05:59:38;19.63;;;16.33;;
40314;SDS011;26021;45.640;11.302;2023-03-26T06:02:03;21.77;;;15.57;;
40314;SDS011;26021;45.640;11.302;2023-03-26T06:04:29;19.17;;;15.75;;
40314;SDS011;26021;45.640;11.302;2023-03-26T06:06:55;20.50;;;16.25;;
40314;SDS011;26021;45.640;11.302;2023-03-26T06:09:21;21.27;;;14.93;;
40314;SDS011;26021;45.640;11.302;2023-03-26T06:11:46;23.52;;;16.40;;
40314;SDS011;26021;45.640;11.302;2023-03-26T06:14:12;20.38;;;14.73;;
40314;SDS011;26021;45.640;11.302;2023-03-26T06:16:37;16.92;;;14.93;;
40314;SDS011;26021;45.640;11.302;2023-03-26T06:19:03;22.95;;;15.32;;
40314;SDS011;26021;45.640;11.302;2023-03-26T06:21:28;18.13;;;14.75;;
40314;SDS011;26021;45.640;11.302;2023-03-26T06:23:54;18.65;;;14.57;;
40314;SDS011;26021;45.640;11.302;2023-03-26T06:26:19;16.85;;;13.93;;
40314;SDS011;26021;45.640;11.302;2023-03-26T06:28:45;20.73;;;14.32;;
40314;SDS011;26021;45.640;11.302;2023-03-26T06:31:10;19.95;;;14.55;;
40314;SDS011;26021;45.640;11.302;2023-03-26T06:33:36;20.48;;;14.63;;
40314;SDS011;26021;45.640;11.302;2023-03-26T06:36:01;17.20;;;14.00;;
40314;SDS011;26021;45.640;11.302;2023-03-26T06:38:27;20.15;;;14.05;;
40314;SDS011;26021;45.640;11.302;2023-03-26T06:40:53;16.65;;;13.95;;
40314;SDS011;26021;45.640;11.302;2023-03-26T06:43:18;17.40;;;13.45;;
40314;SDS011;26021;45.640;11.302;2023-03-26T06:45:48;16.77;;;13.45;;
40314;SDS011;26021;45.640;11.302;2023-03-26T06:48:14;15.63;;;13.73;;
40314;SDS011;26021;45.640;11.302;2023-03-26T06:50:40;16.25;;;13.70;;
40314;SDS011;26021;45.640;11.302;2023-03-26T06:53:05;18.83;;;14.25;;
40314;SDS011;26021;45.640;11.302;2023-03-26T06:55:31;14.25;;;12.75;;
40314;SDS011;26021;45.640;11.302;2023-03-26T06:57:56;17.55;;;14.38;;
40314;SDS011;26021;45.640;11.302;2023-03-26T07:00:22;16.38;;;13.57;;
40314;SDS011;26021;45.640;11.302;2023-03-26T07:02:47;14.02;;;12.52;;
40314;SDS011;26021;45.640;11.302;2023-03-26T07:05:13;17.27;;;14.18;;
40314;SDS011;26021;45.640;11.302;2023-03-26T07:07:38;16.20;;;13.95;;
40314;SDS011;26021;45.640;11.302;2023-03-26T07:10:05;17.08;;;12.98;;
40314;SDS011;26021;45.640;11.302;2023-03-26T07:12:30;16.45;;;13.23;;
40314;SDS011;26021;45.640;11.302;2023-03-26T07:14:56;16.83;;;12.82;;
40314;SDS011;26021;45.640;11.302;2023-03-26T07:17:22;14.73;;;12.63;;
40314;SDS011;26021;45.640;11.302;2023-03-26T07:19:47;16.38;;;12.30;;
40314;SDS011;26021;45.640;11.302;2023-03-26T07:22:14;14.07;;;12.48;;
40314;SDS011;26021;45.640;11.302;2023-03-26T07:24:43;16.48;;;12.88;;
40314;SDS011;26021;45.640;11.302;2023-03-26T07:27:26;15.48;;;13.63;;
40314;SDS011;26021;45.640;11.302;2023-03-26T07:30:03;14.93;;;13.07;;
40314;SDS011;26021;45.640;11.302;2023-03-26T07:32:41;15.60;;;13.70;;
40314;SDS011;26021;45.640;11.302;2023-03-26T07:35:29;15.57;;;12.73;;
40314;SDS011;26021;45.640;11.302;2023-03-26T07:43:32;15.90;;;14.20;;
40314;SDS011;26021;45.640;11.302;2023-03-26T07:46:24;15.40;;;13.02;;
40314;SDS011;26021;45.640;11.302;2023-03-26T07:48:56;14.43;;;12.93;;
40314;SDS011;26021;45.640;11.302;2023-03-26T07:51:24;18.00;;;13.07;;
40314;SDS011;26021;45.640;11.302;2023-03-26T07:53:49;15.18;;;13.20;;
40314;SDS011;26021;45.640;11.302;2023-03-26T07:56:16;14.95;;;12.57;;
40314;SDS011;26021;45.640;11.302;2023-03-26T08:04:26;14.82;;;12.55;;
40314;SDS011;26021;45.640;11.302;2023-03-26T08:07:16;15.57;;;12.38;;
40314;SDS011;26021;45.640;11.302;2023-03-26T08:20:59;8.55;;;7.60;;
40314;SDS011;26021;45.640;11.302;2023-03-26T08:27:26;8.15;;;5.47;;
40314;SDS011;26021;45.640;11.302;2023-03-26T08:32:27;5.35;;;4.85;;
40314;SDS011;26021;45.640;11.302;2023-03-26T08:34:53;8.70;;;4.60;;
40314;SDS011;26021;45.640;11.302;2023-03-26T08:37:18;6.32;;;4.70;;
40314;SDS011;26021;45.640;11.302;2023-03-26T08:39:44;9.77;;;5.43;;
40314;SDS011;26021;45.640;11.302;2023-03-26T08:58:48;5.50;;;4.70;;
40314;SDS011;26021;45.640;11.302;2023-03-26T09:07:23;6.60;;;5.03;;
40314;SDS011;26021;45.640;11.302;2023-03-26T09:23:53;5.35;;;4.85;;
40314;SDS011;26021;45.640;11.302;2023-03-26T09:32:22;7.80;;;5.00;;
40314;SDS011;26021;45.640;11.302;2023-03-26T09:40:16;8.35;;;4.85;;
40314;SDS011;26021;45.640;11.302;2023-03-26T09:42:48;5.78;;;4.72;;
40314;SDS011;26021;45.640;11.302;2023-03-26T09:53:19;6.45;;;3.47;;
40314;SDS011;26021;45.640;11.302;2023-03-26T09:56:09;6.50;;;4.05;;
40314;SDS011;26021;45.640;11.302;2023-03-26T10:01:23;5.38;;;4.28;;
40314;SDS011;26021;45.640;11.302;2023-03-26T10:12:49;5.93;;;4.10;;
40314;SDS011;26021;45.640;11.302;2023-03-26T10:18:03;5.38;;;4.43;;
40314;SDS011;26021;45.640;11.302;2023-03-26T10:26:33;7.50;;;4.80;;
40314;SDS011;26021;45.640;11.302;2023-03-26T10:49:32;9.32;;;6.07;;
40314;SDS011;26021;45.640;11.302;2023-03-26T10:52:05;8.32;;;6.15;;
40314;SDS011;26021;45.640;11.302;2023-03-26T10:54:56;7.15;;;5.25;;
40314;SDS011;26021;45.640;11.302;2023-03-26T10:57:54;8.38;;;5.82;;
40314;SDS011;26021;45.640;11.302;2023-03-26T11:00:23;8.38;;;5.90;;
40314;SDS011;26021;45.640;11.302;2023-03-26T11:11:41;6.47;;;5.18;;
40314;SDS011;26021;45.640;11.302;2023-03-26T11:17:03;7.55;;;5.70;;
40314;SDS011;26021;45.640;11.302;2023-03-26T11:19:51;8.45;;;5.15;;
40314;SDS011;26021;45.640;11.302;2023-03-26T11:22:36;9.13;;;5.88;;
40314;SDS011;26021;45.640;11.302;2023-03-26T11:33:09;9.52;;;5.57;;
40314;SDS011;26021;45.640;11.302;2023-03-26T11:35:41;7.68;;;5.75;;
40314;SDS011;26021;45.640;11.302;2023-03-26T11:38:22;6.45;;;5.75;;
40314;SDS011;26021;45.640;11.302;2023-03-26T11:40:53;6.85;;;5.85;;
40314;SDS011;26021;45.640;11.302;2023-03-26T11:43:23;12.98;;;8.75;;
40314;SDS011;26021;45.640;11.302;2023-03-26T11:45:54;9.88;;;6.55;;
40314;SDS011;26021;45.640;11.302;2023-03-26T11:48:22;10.43;;;7.22;;
40314;SDS011;26021;45.640;11.302;2023-03-26T11:50:56;7.00;;;5.60;;
40314;SDS011;26021;45.640;11.302;2023-03-26T11:53:27;7.97;;;6.25;;
40314;SDS011;26021;45.640;11.302;2023-03-26T11:58:27;11.95;;;7.35;;
40314;SDS011;26021;45.640;11.302;2023-03-26T12:00:58;9.45;;;7.60;;
40314;SDS011;26021;45.640;11.302;2023-03-26T12:03:28;9.70;;;6.97;;
40314;SDS011;26021;45.640;11.302;2023-03-26T12:05:56;10.07;;;7.20;;
40314;SDS011;26021;45.640;11.302;2023-03-26T12:08:29;11.13;;;7.13;;
40314;SDS011;26021;45.640;11.302;2023-03-26T12:11:09;11.82;;;7.75;;
40314;SDS011;26021;45.640;11.302;2023-03-26T12:13:43;10.43;;;7.38;;
40314;SDS011;26021;45.640;11.302;2023-03-26T12:16:15;10.88;;;7.25;;
40314;SDS011;26021;45.640;11.302;2023-03-26T12:18:43;11.20;;;7.57;;
40314;SDS011;26021;45.640;11.302;2023-03-26T12:26:16;10.02;;;7.95;;
40314;SDS011;26021;45.640;11.302;2023-03-26T12:28:48;10.55;;;8.50;;
40314;SDS011;26021;45.640;11.302;2023-03-26T12:31:15;10.43;;;8.77;;
40314;SDS011;26021;45.640;11.302;2023-03-26T12:33:43;10.18;;;8.43;;
40314;SDS011;26021;45.640;11.302;2023-03-26T12:36:20;9.27;;;8.25;;
40314;SDS011;26021;45.640;11.302;2023-03-26T12:38:47;11.10;;;8.65;;
40314;SDS011;26021;45.640;11.302;2023-03-26T12:41:13;13.25;;;9.15;;
40314;SDS011;26021;45.640;11.302;2023-03-26T12:48:54;10.25;;;8.27;;
40314;SDS011;26021;45.640;11.302;2023-03-26T12:57:23;11.45;;;8.38;;
40314;SDS011;26021;45.640;11.302;2023-03-26T13:08:05;9.95;;;8.95;;
40314;SDS011;26021;45.640;11.302;2023-03-26T13:16:32;9.55;;;8.55;;
40314;SDS011;26021;45.640;11.302;2023-03-26T13:19:19;10.55;;;8.20;;
40314;SDS011;26021;45.640;11.302;2023-03-26T13:38:03;13.25;;;8.25;;
40314;SDS011;26021;45.640;11.302;2023-03-26T13:41:04;10.93;;;8.68;;
40314;SDS011;26021;45.640;11.302;2023-03-26T13:46:24;9.20;;;8.05;;
40314;SDS011;26021;45.640;11.302;2023-03-26T13:48:57;10.20;;;8.23;;
40314;SDS011;26021;45.640;11.302;2023-03-26T13:54:17;9.75;;;8.73;;
40314;SDS011;26021;45.640;11.302;2023-03-26T13:56:52;10.15;;;8.25;;
40314;SDS011;26021;45.640;11.302;2023-03-26T14:04:55;11.38;;;8.93;;
40314;SDS011;26021;45.640;11.302;2023-03-26T14:10:16;13.15;;;9.38;;
40314;SDS011;26021;45.640;11.302;2023-03-26T14:21:19;16.85;;;10.98;;
40314;SDS011;26021;45.640;11.302;2023-03-26T14:29:36;14.95;;;11.52;;
40314;SDS011;26021;45.640;11.302;2023-03-26T14:54:09;18.67;;;15.95;;
40314;SDS011;26021;45.640;11.302;2023-03-26T15:02:45;28.48;;;25.48;;
40314;SDS011;26021;45.640;11.302;2023-03-26T15:08:31;38.55;;;28.58;;
40314;SDS011;26021;45.640;11.302;2023-03-26T15:51:55;28.65;;;21.45;;
40314;SDS011;26021;45.640;11.302;2023-03-26T15:54:28;26.55;;;21.17;;
40314;SDS011;26021;45.640;11.302;2023-03-26T15:57:04;27.15;;;21.20;;
40314;SDS011;26021;45.640;11.302;2023-03-26T15:59:47;29.33;;;21.95;;
40314;SDS011;26021;45.640;11.302;2023-03-26T16:18:27;25.50;;;21.73;;
40314;SDS011;26021;45.640;11.302;2023-03-26T16:28:58;12.90;;;9.55;;
40314;SDS011;26021;45.640;11.302;2023-03-26T16:34:44;5.97;;;4.38;;
40314;SDS011;26021;45.640;11.302;2023-03-26T16:39:59;4.97;;;3.65;;
40314;SDS011;26021;45.640;11.302;2023-03-26T16:48:38;5.95;;;3.10;;
40314;SDS011;26021;45.640;11.302;2023-03-26T16:51:37;2.13;;;2.00;;
40314;SDS011;26021;45.640;11.302;2023-03-26T16:54:14;2.90;;;2.20;;
40314;SDS011;26021;45.640;11.302;2023-03-26T16:56:56;5.30;;;2.33;;
40314;SDS011;26021;45.640;11.302;2023-03-26T16:59:38;2.97;;;2.25;;
40314;SDS011;26021;45.640;11.302;2023-03-26T17:10:39;4.95;;;3.88;;
40314;SDS011;26021;45.640;11.302;2023-03-26T17:16:34;11.60;;;7.93;;
40314;SDS011;26021;45.640;11.302;2023-03-26T17:19:45;6.93;;;5.68;;
40314;SDS011;26021;45.640;11.302;2023-03-26T17:24:55;7.78;;;6.63;;
40314;SDS011;26021;45.640;11.302;2023-03-26T17:41:03;6.53;;;4.82;;
40314;SDS011;26021;45.640;11.302;2023-03-26T17:51:39;7.70;;;6.90;;
40314;SDS011;26021;45.640;11.302;2023-03-26T17:56:46;7.07;;;4.68;;
40314;SDS011;26021;45.640;11.302;2023-03-26T17:59:16;6.07;;;5.18;;
40314;SDS011;26021;45.640;11.302;2023-03-26T18:01:47;6.90;;;5.43;;
40314;SDS011;26021;45.640;11.302;2023-03-26T18:04:38;8.77;;;5.50;;
40314;SDS011;26021;45.640;11.302;2023-03-26T18:18:14;4.38;;;3.63;;
40314;SDS011;26021;45.640;11.302;2023-03-26T18:20:51;10.30;;;7.20;;
40314;SDS011;26021;45.640;11.302;2023-03-26T18:23:28;12.02;;;7.85;;
40314;SDS011;26021;45.640;11.302;2023-03-26T18:31:48;8.98;;;5.60;;
40314;SDS011;26021;45.640;11.302;2023-03-26T18:34:18;6.45;;;5.70;;
40314;SDS011;26021;45.640;11.302;2023-03-26T18:36:45;8.75;;;7.35;;
40314;SDS011;26021;45.640;11.302;2023-03-26T18:39:21;6.90;;;6.20;;
40314;SDS011;26021;45.640;11.302;2023-03-26T18:41:46;8.57;;;6.25;;
40314;SDS011;26021;45.640;11.302;2023-03-26T18:44:13;8.48;;;6.32;;
40314;SDS011;26021;45.640;11.302;2023-03-26T18:46:42;6.88;;;6.10;;
40314;SDS011;26021;45.640;11.302;2023-03-26T18:49:11;10.93;;;7.70;;
40314;SDS011;26021;45.640;11.302;2023-03-26T18:51:38;9.13;;;7.90;;
40314;SDS011;26021;45.640;11.302;2023-03-26T18:54:05;8.80;;;7.78;;
40314;SDS011;26021;45.640;11.302;2023-03-26T18:58:58;12.52;;;10.30;;
40314;SDS011;26021;45.640;11.302;2023-03-26T19:01:26;10.32;;;8.68;;
40314;SDS011;26021;45.640;11.302;2023-03-26T19:03:59;9.52;;;7.30;;
40314;SDS011;26021;45.640;11.302;2023-03-26T19:06:28;5.85;;;4.50;;
40314;SDS011;26021;45.640;11.302;2023-03-26T19:09:00;7.07;;;5.57;;
40314;SDS011;26021;45.640;11.302;2023-03-26T19:11:30;6.45;;;5.70;;
40314;SDS011;26021;45.640;11.302;2023-03-26T19:13:59;11.60;;;8.00;;
40314;SDS011;26021;45.640;11.302;2023-03-26T19:16:30;5.93;;;5.32;;
40314;SDS011;26021;45.640;11.302;2023-03-26T19:18:59;8.13;;;6.68;;
40314;SDS011;26021;45.640;11.302;2023-03-26T19:21:29;10.40;;;8.40;;
40314;SDS011;26021;45.640;11.302;2023-03-26T19:23:56;12.70;;;9.27;;
40314;SDS011;26021;45.640;11.302;2023-03-26T19:26:21;7.70;;;6.70;;
40314;SDS011;26021;45.640;11.302;2023-03-26T19:28:50;21.63;;;14.82;;
40314;SDS011;26021;45.640;11.302;2023-03-26T19:36:24;6.15;;;5.55;;
40314;SDS011;26021;45.640;11.302;2023-03-26T19:41:24;7.53;;;6.72;;
40314;SDS011;26021;45.640;11.302;2023-03-26T19:43:58;8.40;;;6.65;;
40314;SDS011;26021;45.640;11.302;2023-03-26T19:46:25;7.63;;;6.50;;
40314;SDS011;26021;45.640;11.302;2023-03-26T19:48:54;9.20;;;6.75;;
40314;SDS011;26021;45.640;11.302;2023-03-26T19:51:23;6.57;;;5.95;;
40314;SDS011;26021;45.640;11.302;2023-03-26T19:53:56;6.28;;;5.68;;
40314;SDS011;26021;45.640;11.302;2023-03-26T19:56:24;6.82;;;6.13;;
40314;SDS011;26021;45.640;11.302;2023-03-26T19:58:51;7.47;;;6.78;;
40314;SDS011;26021;45.640;11.302;2023-03-26T20:01:19;7.78;;;7.07;;
40314;SDS011;26021;45.640;11.302;2023-03-26T20:03:50;8.00;;;7.05;;
40314;SDS011;26021;45.640;11.302;2023-03-26T20:06:19;6.70;;;6.07;;
40314;SDS011;26021;45.640;11.302;2023-03-26T20:08:45;10.38;;;8.35;;
40314;SDS011;26021;45.640;11.302;2023-03-26T20:11:18;8.27;;;7.43;;
40314;SDS011;26021;45.640;11.302;2023-03-26T20:13:46;7.68;;;6.40;;
40314;SDS011;26021;45.640;11.302;2023-03-26T20:18:58;6.35;;;5.75;;
40314;SDS011;26021;45.640;11.302;2023-03-26T20:21:27;7.97;;;7.18;;
40314;SDS011;26021;45.640;11.302;2023-03-26T20:23:53;8.13;;;7.32;;
40314;SDS011;26021;45.640;11.302;2023-03-26T20:26:19;11.45;;;8.50;;
40314;SDS011;26021;45.640;11.302;2023-03-26T20:28:46;10.65;;;7.75;;
40314;SDS011;26021;45.640;11.302;2023-03-26T20:31:13;7.10;;;6.03;;
40314;SDS011;26021;45.640;11.302;2023-03-26T20:33:46;13.03;;;9.00;;
40314;SDS011;26021;45.640;11.302;2023-03-26T20:36:13;9.80;;;7.82;;
40314;SDS011;26021;45.640;11.302;2023-03-26T20:38:40;6.25;;;4.72;;
40314;SDS011;26021;45.640;11.302;2023-03-26T20:41:10;5.18;;;4.68;;
40314;SDS011;26021;45.640;11.302;2023-03-26T20:43:37;5.95;;;4.78;;
40314;SDS011;26021;45.640;11.302;2023-03-26T20:46:03;4.47;;;4.07;;
40314;SDS011;26021;45.640;11.302;2023-03-26T20:48:28;4.50;;;3.53;;
40314;SDS011;26021;45.640;11.302;2023-03-26T20:50:53;4.95;;;4.20;;
40314;SDS011;26021;45.640;11.302;2023-03-26T20:53:21;4.53;;;3.75;;
40314;SDS011;26021;45.640;11.302;2023-03-26T20:55:48;4.10;;;3.70;;
40314;SDS011;26021;45.640;11.302;2023-03-26T20:58:18;4.18;;;3.53;;
40314;SDS011;26021;45.640;11.302;2023-03-26T21:00:47;5.03;;;3.97;;
40314;SDS011;26021;45.640;11.302;2023-03-26T21:03:14;5.88;;;5.25;;
40314;SDS011;26021;45.640;11.302;2023-03-26T21:05:42;5.28;;;4.13;;
40314;SDS011;26021;45.640;11.302;2023-03-26T21:08:15;5.65;;;4.32;;
40314;SDS011;26021;45.640;11.302;2023-03-26T21:10:43;3.88;;;3.40;;
40314;SDS011;26021;45.640;11.302;2023-03-26T21:13:16;5.05;;;4.40;;
40314;SDS011;26021;45.640;11.302;2023-03-26T21:16:01;4.65;;;4.10;;
40314;SDS011;26021;45.640;11.302;2023-03-26T21:18:27;2.83;;;2.60;;
40314;SDS011;26021;45.640;11.302;2023-03-26T21:20:57;0.95;;;0.60;;
40314;SDS011;26021;45.640;11.302;2023-03-26T21:23:51;0.57;;;0.57;;
40314;SDS011;26021;45.640;11.302;2023-03-26T21:29:14;1.75;;;0.30;;
40314;SDS011;26021;45.640;11.302;2023-03-26T21:31:40;0.40;;;0.40;;
40314;SDS011;26021;45.640;11.302;2023-03-26T21:34:05;0.70;;;0.20;;
40314;SDS011;26021;45.640;11.302;2023-03-26T21:36:32;0.43;;;0.20;;
40314;SDS011;26021;45.640;11.302;2023-03-26T21:38:59;1.27;;;0.20;;
40314;SDS011;26021;45.640;11.302;2023-03-26T21:41:30;0.38;;;0.38;;
40314;SDS011;26021;45.640;11.302;2023-03-26T21:44:00;0.25;;;0.20;;